createdAt,value
2019-05-11T00:03:41.485Z,10.00
2019-05-11T00:08:46.432Z,10.00
2019-05-11T00:13:50.827Z,9.90
2019-05-11T00:18:55.605Z,9.90
2019-05-11T00:24:00.876Z,9.80
2019-05-11T00:29:08.040Z,9.60
2019-05-11T00:34:12.692Z,9.40
2019-05-11T00:39:17.200Z,9.20
2019-05-11T00:44:22.345Z,9.10
2019-05-11T00:49:27.832Z,8.90
2019-05-11T00:54:33.002Z,8.80
2019-05-11T00:59:37.765Z,8.80
2019-05-11T01:04:42.178Z,8.70
2019-05-11T01:09:46.746Z,8.80
2019-05-11T01:14:52.587Z,9.00
2019-05-11T01:19:57.132Z,9.00
2019-05-11T01:25:02.854Z,9.00
2019-05-11T01:30:07.915Z,8.90
2019-05-11T01:35:12.819Z,8.80
2019-05-11T01:40:17.939Z,8.90
2019-05-11T01:45:22.868Z,9.00
2019-05-11T01:50:28.326Z,9.10
2019-05-11T01:55:32.917Z,9.30
2019-05-11T02:00:37.744Z,9.50
2019-05-11T02:05:42.836Z,9.60
2019-05-11T02:10:47.238Z,9.60
2019-05-11T02:15:52.448Z,9.70
2019-05-11T02:20:56.916Z,9.70
2019-05-11T02:26:01.403Z,9.70
2019-05-11T02:31:06.162Z,9.90
2019-05-11T02:36:10.618Z,9.90
2019-05-11T02:41:34.664Z,9.90
2019-05-11T02:46:23.412Z,10.00
2019-05-11T02:51:29.174Z,10.00
2019-05-11T02:56:34.749Z,9.90
2019-05-11T03:01:39.215Z,9.90
2019-05-11T03:06:43.724Z,10.00
2019-05-11T03:11:55.664Z,10.10
2019-05-11T03:17:11.419Z,10.30
2019-05-11T03:22:16.078Z,10.40
2019-05-11T03:27:21.199Z,10.40
2019-05-11T03:32:25.708Z,10.30
2019-05-11T03:37:30.703Z,10.30
2019-05-11T03:42:35.187Z,10.40
2019-05-11T03:47:39.956Z,10.50
2019-05-11T03:52:44.651Z,10.70
2019-05-11T03:57:49.136Z,10.90
2019-05-11T04:02:53.902Z,10.90
2019-05-11T04:07:58.786Z,10.80
2019-05-11T04:13:03.469Z,10.50
2019-05-11T04:18:08.212Z,10.30
2019-05-11T04:23:12.999Z,10.10
2019-05-11T04:28:17.750Z,10.00
2019-05-11T04:33:22.603Z,10.00
2019-05-11T04:38:27.446Z,10.10
2019-05-11T04:43:32.239Z,10.20
2019-05-11T04:48:37.514Z,10.30
2019-05-11T04:53:42.344Z,10.40
2019-05-11T04:58:47.201Z,10.40
2019-05-11T05:03:56.257Z,10.50
2019-05-11T05:09:03.559Z,10.60
2019-05-11T05:14:10.311Z,10.90
2019-05-11T05:19:13.897Z,11.40
2019-05-11T05:24:18.805Z,12.00
2019-05-11T05:29:23.820Z,12.60
2019-05-11T05:34:28.242Z,12.90
2019-05-11T05:39:33.165Z,12.90
2019-05-11T05:44:37.628Z,12.90
2019-05-11T05:49:42.842Z,12.90
2019-05-11T05:54:47.237Z,12.90
2019-05-11T05:59:51.903Z,13.20
2019-05-11T06:04:57.296Z,13.40
2019-05-11T06:10:02.450Z,13.80
2019-05-11T06:15:08.534Z,14.00
2019-05-11T06:20:13.724Z,14.10
2019-05-11T06:25:18.562Z,13.70
2019-05-11T06:30:24.615Z,14.30
2019-05-11T06:35:29.238Z,18.10
2019-05-11T06:40:34.269Z,18.40
2019-05-11T06:45:39.366Z,17.60
2019-05-11T06:50:43.854Z,17.20
2019-05-11T06:56:07.275Z,17.70
2019-05-11T07:01:12.364Z,19.90
2019-05-11T07:06:17.054Z,21.90
2019-05-11T07:11:21.536Z,20.60
2019-05-11T07:16:26.278Z,19.50
2019-05-11T07:21:31.359Z,18.90
2019-05-11T07:26:35.957Z,20.10
2019-05-11T07:31:40.888Z,21.50
2019-05-11T07:36:47.594Z,23.80
2019-05-11T07:41:52.319Z,21.70
2019-05-11T07:46:58.680Z,21.10
2019-05-11T07:52:02.907Z,18.60
2019-05-11T07:57:08.918Z,18.90
2019-05-11T08:02:13.504Z,22.60
2019-05-11T08:07:18.775Z,24.40
2019-05-11T08:12:23.522Z,23.10
2019-05-11T08:17:28.673Z,20.20
2019-05-11T08:22:33.523Z,20.50
2019-05-11T08:27:38.939Z,21.00
2019-05-11T08:32:43.574Z,21.60
2019-05-11T08:37:48.263Z,20.00
2019-05-11T08:42:53.440Z,19.80
2019-05-11T08:47:58.765Z,20.00
2019-05-11T08:53:03.556Z,21.70
2019-05-11T08:58:09.273Z,24.10
2019-05-11T09:03:13.656Z,24.30
2019-05-11T09:08:20.325Z,24.90
2019-05-11T09:13:27.709Z,24.80
2019-05-11T09:18:32.066Z,23.60
2019-05-11T09:23:40.681Z,21.10
2019-05-11T09:28:45.019Z,18.50
2019-05-11T09:33:49.811Z,17.30
2019-05-11T09:38:54.766Z,17.40
2019-05-11T09:43:59.643Z,20.70
2019-05-11T09:49:04.678Z,21.40
2019-05-11T09:54:09.795Z,21.60
2019-05-11T09:59:17.693Z,21.60
2019-05-11T10:04:21.845Z,21.70
2019-05-11T10:09:28.019Z,21.30
2019-05-11T10:14:34.080Z,21.30
2019-05-11T10:19:39.577Z,21.50
2019-05-11T10:24:58.075Z,20.00
2019-05-11T10:30:02.557Z,19.40
2019-05-11T10:35:08.208Z,19.30
2019-05-11T10:40:13.700Z,19.40
2019-05-11T10:45:18.532Z,20.20
2019-05-11T10:50:23.693Z,20.50
2019-05-11T10:55:28.921Z,20.40
2019-05-11T11:00:33.436Z,19.40
2019-05-11T11:05:38.631Z,18.70
2019-05-11T11:10:44.237Z,18.80
2019-05-11T11:15:49.081Z,19.20
2019-05-11T11:20:58.105Z,18.80
2019-05-11T11:26:02.816Z,19.50
2019-05-11T11:31:08.008Z,20.30
2019-05-11T11:36:13.115Z,19.90
2019-05-11T11:41:18.661Z,19.60
2019-05-11T11:46:23.832Z,18.90
2019-05-11T11:51:28.741Z,18.70
2019-05-11T11:56:34.588Z,18.80
2019-05-11T12:01:39.298Z,19.10
2019-05-11T12:06:43.950Z,20.10
2019-05-11T12:11:48.782Z,19.40
2019-05-11T12:17:04.866Z,19.30
2019-05-11T12:22:00.199Z,19.50
2019-05-11T12:27:07.506Z,19.40
2019-05-11T12:32:18.560Z,19.20
2019-05-11T12:37:23.458Z,19.60
2019-05-11T12:42:31.383Z,19.10
2019-05-11T12:47:38.429Z,18.80
2019-05-11T12:52:42.988Z,19.70
2019-05-11T12:57:48.265Z,19.90
2019-05-11T13:02:53.796Z,20.60
2019-05-11T13:08:01.728Z,20.90
2019-05-11T13:13:08.976Z,20.30
2019-05-11T13:18:13.708Z,19.20
2019-05-11T13:23:21.242Z,18.80
2019-05-11T13:28:30.874Z,19.10
2019-05-11T13:33:35.613Z,19.40
2019-05-11T13:38:40.078Z,19.50
2019-05-11T13:43:45.244Z,18.20
2019-05-11T13:48:50.169Z,16.00
2019-05-11T13:53:55.419Z,15.10
2019-05-11T13:59:10.590Z,14.40
2019-05-11T14:04:17.893Z,14.30
2019-05-11T14:09:22.613Z,14.50
2019-05-11T14:14:28.783Z,14.10
2019-05-11T14:19:33.915Z,14.50
2019-05-11T14:24:39.249Z,15.40
2019-05-11T14:29:48.708Z,15.90
2019-05-11T14:34:53.690Z,16.10
2019-05-11T14:39:58.523Z,16.00
2019-05-11T14:45:03.367Z,16.50
2019-05-11T14:50:08.592Z,17.00
2019-05-11T14:55:13.303Z,16.80
2019-05-11T15:00:18.535Z,14.80
2019-05-11T15:05:23.752Z,14.70
2019-05-11T15:10:28.643Z,15.00
2019-05-11T15:15:33.411Z,15.60
2019-05-11T15:20:38.802Z,15.50
2019-05-11T15:25:43.619Z,15.00
2019-05-11T15:30:48.859Z,14.60
2019-05-11T15:35:53.655Z,14.60
2019-05-11T15:40:58.221Z,14.80
2019-05-11T15:46:03.111Z,14.80
2019-05-11T15:51:08.185Z,15.10
2019-05-11T15:56:12.905Z,15.40
2019-05-11T16:01:18.624Z,15.50
2019-05-11T16:06:24.137Z,15.50
2019-05-11T16:11:28.557Z,15.20
2019-05-11T16:16:33.569Z,14.70
2019-05-11T16:21:38.337Z,14.50
2019-05-11T16:26:42.979Z,13.60
2019-05-11T16:31:48.323Z,12.80
2019-05-11T16:36:54.397Z,12.60
2019-05-11T16:41:59.837Z,12.20
2019-05-11T16:47:07.703Z,12.00
2019-05-11T16:52:11.461Z,12.20
2019-05-11T16:57:17.670Z,12.40
2019-05-11T17:02:22.921Z,12.20
2019-05-11T17:07:29.814Z,11.90
2019-05-11T17:12:34.458Z,11.50
2019-05-11T17:17:38.888Z,11.20
2019-05-11T17:22:43.942Z,10.80
2019-05-11T17:27:49.179Z,10.60
2019-05-11T17:32:54.055Z,10.40
2019-05-11T17:37:59.313Z,10.20
2019-05-11T17:43:04.469Z,10.10
2019-05-11T17:48:10.935Z,10.10
2019-05-11T17:53:17.737Z,9.90
2019-05-11T17:58:22.512Z,9.80
2019-05-11T18:03:29.201Z,9.80
2019-05-11T18:14:02.496Z,9.70
2019-05-11T18:19:08.602Z,9.60
2019-05-11T18:24:13.391Z,9.50
2019-05-11T18:29:18.387Z,9.40
2019-05-11T18:34:23.482Z,9.30
2019-05-11T18:39:28.759Z,9.20
2019-05-11T18:44:33.431Z,8.90
2019-05-11T18:49:38.554Z,9.00
2019-05-11T18:54:43.414Z,9.00
2019-05-11T18:59:48.369Z,8.90
2019-05-11T19:04:53.031Z,9.00
2019-05-11T19:09:58.807Z,8.80
2019-05-11T19:15:03.387Z,8.90
2019-05-11T19:20:11.202Z,8.90
2019-05-11T19:25:18.091Z,8.90
2019-05-11T19:30:24.604Z,8.90
2019-05-11T19:35:29.360Z,8.80
2019-05-11T19:40:34.236Z,8.80
2019-05-11T19:45:40.634Z,8.80
2019-05-11T19:50:59.097Z,8.70
2019-05-11T19:55:52.049Z,8.60
2019-05-11T20:00:57.999Z,8.60
2019-05-11T20:06:03.086Z,8.60
2019-05-11T20:11:08.301Z,8.60
2019-05-11T20:16:19.776Z,8.50
2019-05-11T20:21:23.646Z,8.30
2019-05-11T20:26:28.745Z,8.30
2019-05-11T20:31:33.416Z,8.20
2019-05-11T20:36:38.156Z,8.10
2019-05-11T20:41:43.071Z,8.20
2019-05-11T20:46:48.687Z,8.10
2019-05-11T20:51:54.100Z,8.10
2019-05-11T20:57:00.294Z,8.00
2019-05-11T21:02:05.415Z,8.00
2019-05-11T21:07:09.922Z,8.00
2019-05-11T21:12:14.430Z,8.00
2019-05-11T21:17:19.184Z,8.10
2019-05-11T21:22:24.003Z,8.00
2019-05-11T21:27:28.998Z,7.90
2019-05-11T21:32:33.639Z,7.80
2019-05-11T21:37:39.059Z,7.80
2019-05-11T21:42:44.332Z,7.80
2019-05-11T21:47:49.187Z,7.80
2019-05-11T21:52:54.373Z,7.80
2019-05-11T21:57:59.236Z,7.70
2019-05-11T22:03:03.951Z,7.70
2019-05-11T22:08:08.750Z,7.60
2019-05-11T22:13:13.404Z,7.60
2019-05-11T22:18:30.599Z,7.50
2019-05-11T22:23:24.090Z,7.50
2019-05-11T22:28:29.231Z,7.40
2019-05-11T22:33:34.197Z,7.40
2019-05-11T22:38:38.807Z,7.40
2019-05-11T22:43:43.744Z,7.30
2019-05-11T22:48:49.103Z,7.30
2019-05-11T22:53:59.161Z,7.20
2019-05-11T22:59:04.248Z,7.20
2019-05-11T23:04:08.901Z,7.20
2019-05-11T23:09:13.576Z,7.30
2019-05-11T23:14:19.911Z,7.30
2019-05-11T23:19:24.459Z,7.30
2019-05-11T23:24:30.330Z,7.30
2019-05-11T23:29:35.283Z,7.30
2019-05-11T23:34:39.745Z,7.30
2019-05-11T23:39:44.435Z,7.20
2019-05-11T23:44:49.594Z,7.20
2019-05-11T23:49:54.261Z,7.30
2019-05-11T23:54:59.018Z,7.20
